sensor_id;sensor_type;location;lat;lon;timestamp;temperature;humidity
75621;DHT22;64574;48.506;-2.750;2023-02-28T00:01:19;5.00;61.00
75621;DHT22;64574;48.506;-2.750;2023-02-28T00:03:44;5.10;61.00
75621;DHT22;64574;48.506;-2.750;2023-02-28T00:06:10;5.10;60.90
75621;DHT22;64574;48.506;-2.750;2023-02-28T00:08:37;5.10;61.00
75621;DHT22;64574;48.506;-2.750;2023-02-28T00:11:04;5.10;60.80
75621;DHT22;64574;48.506;-2.750;2023-02-28T00:13:30;5.00;60.70
75621;DHT22;64574;48.506;-2.750;2023-02-28T00:16:07;5.00;60.80
75621;DHT22;64574;48.506;-2.750;2023-02-28T00:18:34;5.00;60.80
75621;DHT22;64574;48.506;-2.750;2023-02-28T00:21:00;5.00;60.50
75621;DHT22;64574;48.506;-2.750;2023-02-28T00:23:27;5.00;60.70
75621;DHT22;64574;48.506;-2.750;2023-02-28T00:25:52;5.00;60.40
75621;DHT22;64574;48.506;-2.750;2023-02-28T00:28:18;4.90;60.40
75621;DHT22;64574;48.506;-2.750;2023-02-28T00:30:44;4.90;60.50
75621;DHT22;64574;48.506;-2.750;2023-02-28T00:33:10;5.00;60.40
75621;DHT22;64574;48.506;-2.750;2023-02-28T00:35:36;5.00;60.30
75621;DHT22;64574;48.506;-2.750;2023-02-28T00:38:01;4.80;60.70
75621;DHT22;64574;48.506;-2.750;2023-02-28T00:40:27;5.00;60.60
75621;DHT22;64574;48.506;-2.750;2023-02-28T00:42:53;4.90;60.50
75621;DHT22;64574;48.506;-2.750;2023-02-28T00:45:19;4.90;60.50
75621;DHT22;64574;48.506;-2.750;2023-02-28T00:47:45;5.00;60.30
75621;DHT22;64574;48.506;-2.750;2023-02-28T00:50:12;5.00;60.10
75621;DHT22;64574;48.506;-2.750;2023-02-28T00:52:38;5.00;60.00
75621;DHT22;64574;48.506;-2.750;2023-02-28T00:55:04;4.90;60.30
75621;DHT22;64574;48.506;-2.750;2023-02-28T00:57:30;5.00;60.30
75621;DHT22;64574;48.506;-2.750;2023-02-28T00:59:55;4.90;60.30
75621;DHT22;64574;48.506;-2.750;2023-02-28T01:02:23;4.90;60.30
75621;DHT22;64574;48.506;-2.750;2023-02-28T01:04:49;4.90;60.40
75621;DHT22;64574;48.506;-2.750;2023-02-28T01:07:15;4.90;60.50
75621;DHT22;64574;48.506;-2.750;2023-02-28T01:09:41;4.90;60.50
75621;DHT22;64574;48.506;-2.750;2023-02-28T01:12:08;4.90;60.40
75621;DHT22;64574;48.506;-2.750;2023-02-28T01:14:34;4.80;60.70
75621;DHT22;64574;48.506;-2.750;2023-02-28T01:17:00;4.80;60.50
75621;DHT22;64574;48.506;-2.750;2023-02-28T01:19:26;4.70;60.80
75621;DHT22;64574;48.506;-2.750;2023-02-28T01:21:52;4.90;60.60
75621;DHT22;64574;48.506;-2.750;2023-02-28T01:24:17;4.70;60.70
75621;DHT22;64574;48.506;-2.750;2023-02-28T01:26:43;4.70;60.80
75621;DHT22;64574;48.506;-2.750;2023-02-28T01:29:08;4.70;60.90
75621;DHT22;64574;48.506;-2.750;2023-02-28T01:31:34;4.70;61.00
75621;DHT22;64574;48.506;-2.750;2023-02-28T01:34:00;4.70;60.90
75621;DHT22;64574;48.506;-2.750;2023-02-28T01:36:26;4.70;60.90
75621;DHT22;64574;48.506;-2.750;2023-02-28T01:38:52;4.70;61.00
75621;DHT22;64574;48.506;-2.750;2023-02-28T01:41:26;4.70;60.80
75621;DHT22;64574;48.506;-2.750;2023-02-28T01:46:25;4.70;61.00
75621;DHT22;64574;48.506;-2.750;2023-02-28T01:54:12;4.50;61.30
75621;DHT22;64574;48.506;-2.750;2023-02-28T01:56:42;4.40;61.70
75621;DHT22;64574;48.506;-2.750;2023-02-28T01:59:09;4.40;62.00
75621;DHT22;64574;48.506;-2.750;2023-02-28T02:01:35;4.30;62.10
75621;DHT22;64574;48.506;-2.750;2023-02-28T02:04:02;4.30;62.10
75621;DHT22;64574;48.506;-2.750;2023-02-28T02:06:41;4.20;62.40
75621;DHT22;64574;48.506;-2.750;2023-02-28T02:09:07;4.20;62.50
75621;DHT22;64574;48.506;-2.750;2023-02-28T02:11:34;4.20;62.30
75621;DHT22;64574;48.506;-2.750;2023-02-28T02:14:25;4.20;62.50
75621;DHT22;64574;48.506;-2.750;2023-02-28T02:17:04;4.20;62.40
75621;DHT22;64574;48.506;-2.750;2023-02-28T02:28:10;4.10;62.80
75621;DHT22;64574;48.506;-2.750;2023-02-28T02:31:12;4.20;62.80
75621;DHT22;64574;48.506;-2.750;2023-02-28T02:36:42;4.10;63.00
75621;DHT22;64574;48.506;-2.750;2023-02-28T02:39:21;4.10;63.30
75621;DHT22;64574;48.506;-2.750;2023-02-28T02:41:54;4.20;63.20
75621;DHT22;64574;48.506;-2.750;2023-02-28T02:44:48;4.30;63.20
75621;DHT22;64574;48.506;-2.750;2023-02-28T02:47:18;4.40;62.60
75621;DHT22;64574;48.506;-2.750;2023-02-28T02:49:49;4.50;62.40
75621;DHT22;64574;48.506;-2.750;2023-02-28T02:52:20;4.50;62.20
75621;DHT22;64574;48.506;-2.750;2023-02-28T02:54:48;4.50;62.10
75621;DHT22;64574;48.506;-2.750;2023-02-28T02:57:30;4.50;62.00
75621;DHT22;64574;48.506;-2.750;2023-02-28T02:59:57;4.50;62.00
75621;DHT22;64574;48.506;-2.750;2023-02-28T03:02:26;4.50;61.80
75621;DHT22;64574;48.506;-2.750;2023-02-28T03:04:59;4.50;61.60
75621;DHT22;64574;48.506;-2.750;2023-02-28T03:07:26;4.50;61.60
75621;DHT22;64574;48.506;-2.750;2023-02-28T03:09:53;4.60;61.20
75621;DHT22;64574;48.506;-2.750;2023-02-28T03:12:20;4.60;61.10
75621;DHT22;64574;48.506;-2.750;2023-02-28T03:17:49;4.60;60.70
75621;DHT22;64574;48.506;-2.750;2023-02-28T03:22:52;4.60;60.30
75621;DHT22;64574;48.506;-2.750;2023-02-28T03:28:17;4.60;60.00
75621;DHT22;64574;48.506;-2.750;2023-02-28T03:30:59;4.70;59.70
75621;DHT22;64574;48.506;-2.750;2023-02-28T03:33:30;4.70;59.70
75621;DHT22;64574;48.506;-2.750;2023-02-28T03:36:02;4.70;59.60
75621;DHT22;64574;48.506;-2.750;2023-02-28T03:41:31;4.60;60.00
75621;DHT22;64574;48.506;-2.750;2023-02-28T03:44:11;4.60;60.20
75621;DHT22;64574;48.506;-2.750;2023-02-28T03:46:46;4.60;60.00
75621;DHT22;64574;48.506;-2.750;2023-02-28T03:49:20;4.60;60.10
75621;DHT22;64574;48.506;-2.750;2023-02-28T03:51:49;4.60;60.00
75621;DHT22;64574;48.506;-2.750;2023-02-28T03:54:22;4.60;60.00
75621;DHT22;64574;48.506;-2.750;2023-02-28T03:57:13;4.60;60.20
75621;DHT22;64574;48.506;-2.750;2023-02-28T03:59:44;4.70;60.20
75621;DHT22;64574;48.506;-2.750;2023-02-28T04:02:11;4.50;60.00
75621;DHT22;64574;48.506;-2.750;2023-02-28T04:04:37;4.50;60.50
75621;DHT22;64574;48.506;-2.750;2023-02-28T04:07:07;4.50;60.50
75621;DHT22;64574;48.506;-2.750;2023-02-28T04:09:34;4.50;60.60
75621;DHT22;64574;48.506;-2.750;2023-02-28T04:12:00;4.50;60.40
75621;DHT22;64574;48.506;-2.750;2023-02-28T04:14:25;4.50;60.40
75621;DHT22;64574;48.506;-2.750;2023-02-28T04:16:52;4.50;60.70
75621;DHT22;64574;48.506;-2.750;2023-02-28T04:19:18;4.50;60.50
75621;DHT22;64574;48.506;-2.750;2023-02-28T04:21:54;4.50;60.30
75621;DHT22;64574;48.506;-2.750;2023-02-28T04:24:24;4.50;60.10
75621;DHT22;64574;48.506;-2.750;2023-02-28T04:26:52;4.50;60.00
75621;DHT22;64574;48.506;-2.750;2023-02-28T04:29:29;4.60;59.70
75621;DHT22;64574;48.506;-2.750;2023-02-28T04:31:56;4.50;59.60
75621;DHT22;64574;48.506;-2.750;2023-02-28T04:34:29;4.50;59.60
75621;DHT22;64574;48.506;-2.750;2023-02-28T04:36:55;4.50;59.70
75621;DHT22;64574;48.506;-2.750;2023-02-28T04:39:22;4.50;59.60
75621;DHT22;64574;48.506;-2.750;2023-02-28T04:41:48;4.50;59.60
75621;DHT22;64574;48.506;-2.750;2023-02-28T04:44:14;4.50;59.60
75621;DHT22;64574;48.506;-2.750;2023-02-28T04:46:40;4.50;59.80
75621;DHT22;64574;48.506;-2.750;2023-02-28T04:49:05;4.40;59.90
75621;DHT22;64574;48.506;-2.750;2023-02-28T04:51:31;4.40;59.90
75621;DHT22;64574;48.506;-2.750;2023-02-28T04:53:57;4.50;60.00
75621;DHT22;64574;48.506;-2.750;2023-02-28T04:56:22;4.50;59.80
75621;DHT22;64574;48.506;-2.750;2023-02-28T04:58:49;4.50;59.80
75621;DHT22;64574;48.506;-2.750;2023-02-28T05:01:17;4.50;59.80
75621;DHT22;64574;48.506;-2.750;2023-02-28T05:03:43;4.40;60.10
75621;DHT22;64574;48.506;-2.750;2023-02-28T05:06:10;4.50;59.80
75621;DHT22;64574;48.506;-2.750;2023-02-28T05:08:36;4.50;59.70
75621;DHT22;64574;48.506;-2.750;2023-02-28T05:11:03;4.50;59.70
75621;DHT22;64574;48.506;-2.750;2023-02-28T05:13:29;4.50;59.80
75621;DHT22;64574;48.506;-2.750;2023-02-28T05:15:55;4.50;59.60
75621;DHT22;64574;48.506;-2.750;2023-02-28T05:18:21;4.50;59.70
75621;DHT22;64574;48.506;-2.750;2023-02-28T05:20:47;4.50;59.50
75621;DHT22;64574;48.506;-2.750;2023-02-28T05:23:13;4.40;59.70
75621;DHT22;64574;48.506;-2.750;2023-02-28T05:25:40;4.30;59.70
75621;DHT22;64574;48.506;-2.750;2023-02-28T05:28:06;4.30;59.70
75621;DHT22;64574;48.506;-2.750;2023-02-28T05:30:32;4.30;59.70
75621;DHT22;64574;48.506;-2.750;2023-02-28T05:32:58;4.40;59.30
75621;DHT22;64574;48.506;-2.750;2023-02-28T05:35:24;4.30;59.40
75621;DHT22;64574;48.506;-2.750;2023-02-28T05:37:50;4.30;59.20
75621;DHT22;64574;48.506;-2.750;2023-02-28T05:40:16;4.40;59.00
75621;DHT22;64574;48.506;-2.750;2023-02-28T05:42:42;4.30;58.90
75621;DHT22;64574;48.506;-2.750;2023-02-28T05:45:08;4.10;59.10
75621;DHT22;64574;48.506;-2.750;2023-02-28T05:47:34;4.20;59.10
75621;DHT22;64574;48.506;-2.750;2023-02-28T05:50:00;4.20;58.90
75621;DHT22;64574;48.506;-2.750;2023-02-28T05:52:27;4.30;58.80
75621;DHT22;64574;48.506;-2.750;2023-02-28T05:54:52;4.30;58.90
75621;DHT22;64574;48.506;-2.750;2023-02-28T05:57:18;4.20;58.80
75621;DHT22;64574;48.506;-2.750;2023-02-28T05:59:44;4.10;58.90
75621;DHT22;64574;48.506;-2.750;2023-02-28T06:02:14;4.20;58.90
75621;DHT22;64574;48.506;-2.750;2023-02-28T06:04:40;4.30;58.60
75621;DHT22;64574;48.506;-2.750;2023-02-28T06:07:07;4.30;58.50
75621;DHT22;64574;48.506;-2.750;2023-02-28T06:09:33;4.30;58.00
75621;DHT22;64574;48.506;-2.750;2023-02-28T06:12:00;4.20;58.10
75621;DHT22;64574;48.506;-2.750;2023-02-28T06:14:28;4.30;57.70
75621;DHT22;64574;48.506;-2.750;2023-02-28T06:16:53;4.20;57.60
75621;DHT22;64574;48.506;-2.750;2023-02-28T06:19:19;4.20;57.30
75621;DHT22;64574;48.506;-2.750;2023-02-28T06:21:45;4.20;57.50
75621;DHT22;64574;48.506;-2.750;2023-02-28T06:24:13;4.20;57.30
75621;DHT22;64574;48.506;-2.750;2023-02-28T06:26:40;4.10;57.20
75621;DHT22;64574;48.506;-2.750;2023-02-28T06:29:05;4.20;57.20
75621;DHT22;64574;48.506;-2.750;2023-02-28T06:31:31;4.20;57.10
75621;DHT22;64574;48.506;-2.750;2023-02-28T06:33:57;4.10;57.10
75621;DHT22;64574;48.506;-2.750;2023-02-28T06:36:23;4.10;56.90
75621;DHT22;64574;48.506;-2.750;2023-02-28T06:38:48;4.10;57.00
75621;DHT22;64574;48.506;-2.750;2023-02-28T06:41:21;4.10;56.90
75621;DHT22;64574;48.506;-2.750;2023-02-28T06:43:46;4.10;56.90
75621;DHT22;64574;48.506;-2.750;2023-02-28T06:46:13;4.00;57.00
75621;DHT22;64574;48.506;-2.750;2023-02-28T06:48:40;4.00;57.00
75621;DHT22;64574;48.506;-2.750;2023-02-28T06:51:08;4.10;56.90
75621;DHT22;64574;48.506;-2.750;2023-02-28T06:53:34;4.10;56.90
75621;DHT22;64574;48.506;-2.750;2023-02-28T06:56:07;4.20;57.00
75621;DHT22;64574;48.506;-2.750;2023-02-28T06:58:33;4.20;56.90
75621;DHT22;64574;48.506;-2.750;2023-02-28T07:00:59;4.20;56.90
75621;DHT22;64574;48.506;-2.750;2023-02-28T07:03:24;4.20;56.80
75621;DHT22;64574;48.506;-2.750;2023-02-28T07:05:50;4.20;56.60
75621;DHT22;64574;48.506;-2.750;2023-02-28T07:08:16;4.20;56.70
75621;DHT22;64574;48.506;-2.750;2023-02-28T07:10:42;4.20;56.60
75621;DHT22;64574;48.506;-2.750;2023-02-28T07:13:08;4.30;56.60
75621;DHT22;64574;48.506;-2.750;2023-02-28T07:15:35;4.30;56.40
75621;DHT22;64574;48.506;-2.750;2023-02-28T07:18:01;4.30;56.20
75621;DHT22;64574;48.506;-2.750;2023-02-28T07:20:26;4.30;56.30
75621;DHT22;64574;48.506;-2.750;2023-02-28T07:22:52;4.30;56.20
75621;DHT22;64574;48.506;-2.750;2023-02-28T07:25:26;4.40;56.30
75621;DHT22;64574;48.506;-2.750;2023-02-28T07:27:53;4.30;56.30
75621;DHT22;64574;48.506;-2.750;2023-02-28T07:30:19;4.30;56.20
75621;DHT22;64574;48.506;-2.750;2023-02-28T07:32:45;4.40;56.20
75621;DHT22;64574;48.506;-2.750;2023-02-28T07:35:11;4.40;56.00
75621;DHT22;64574;48.506;-2.750;2023-02-28T07:37:37;4.40;56.10
75621;DHT22;64574;48.506;-2.750;2023-02-28T07:40:04;4.40;56.30
75621;DHT22;64574;48.506;-2.750;2023-02-28T07:42:32;4.40;56.20
75621;DHT22;64574;48.506;-2.750;2023-02-28T07:44:58;4.40;56.40
75621;DHT22;64574;48.506;-2.750;2023-02-28T07:47:24;4.50;56.40
75621;DHT22;64574;48.506;-2.750;2023-02-28T07:49:50;4.50;56.30
75621;DHT22;64574;48.506;-2.750;2023-02-28T07:52:15;4.50;56.40
75621;DHT22;64574;48.506;-2.750;2023-02-28T07:54:41;4.50;56.60
75621;DHT22;64574;48.506;-2.750;2023-02-28T07:57:06;4.50;56.40
75621;DHT22;64574;48.506;-2.750;2023-02-28T07:59:32;4.50;56.50
75621;DHT22;64574;48.506;-2.750;2023-02-28T08:01:58;4.40;56.70
75621;DHT22;64574;48.506;-2.750;2023-02-28T08:04:24;4.40;56.80
75621;DHT22;64574;48.506;-2.750;2023-02-28T08:06:50;4.40;56.80
75621;DHT22;64574;48.506;-2.750;2023-02-28T08:09:18;4.30;57.20
75621;DHT22;64574;48.506;-2.750;2023-02-28T08:11:44;4.40;57.20
75621;DHT22;64574;48.506;-2.750;2023-02-28T08:14:10;4.40;57.40
75621;DHT22;64574;48.506;-2.750;2023-02-28T08:16:35;4.30;57.60
75621;DHT22;64574;48.506;-2.750;2023-02-28T08:19:01;4.50;57.50
75621;DHT22;64574;48.506;-2.750;2023-02-28T08:21:26;4.50;57.40
75621;DHT22;64574;48.506;-2.750;2023-02-28T08:23:52;4.40;57.40
75621;DHT22;64574;48.506;-2.750;2023-02-28T08:26:18;4.40;57.60
75621;DHT22;64574;48.506;-2.750;2023-02-28T08:28:44;4.50;57.50
75621;DHT22;64574;48.506;-2.750;2023-02-28T08:31:11;4.50;57.60
75621;DHT22;64574;48.506;-2.750;2023-02-28T08:33:39;4.50;57.70
75621;DHT22;64574;48.506;-2.750;2023-02-28T08:36:06;4.50;57.60
75621;DHT22;64574;48.506;-2.750;2023-02-28T08:38:32;4.50;57.70
75621;DHT22;64574;48.506;-2.750;2023-02-28T08:41:03;4.50;57.60
75621;DHT22;64574;48.506;-2.750;2023-02-28T08:43:31;4.50;57.70
75621;DHT22;64574;48.506;-2.750;2023-02-28T08:45:56;4.50;57.70
75621;DHT22;64574;48.506;-2.750;2023-02-28T08:48:26;4.50;57.80
75621;DHT22;64574;48.506;-2.750;2023-02-28T08:51:05;4.60;57.90
75621;DHT22;64574;48.506;-2.750;2023-02-28T08:53:32;4.50;58.00
75621;DHT22;64574;48.506;-2.750;2023-02-28T08:56:03;4.50;58.00
75621;DHT22;64574;48.506;-2.750;2023-02-28T08:58:29;4.70;58.10
75621;DHT22;64574;48.506;-2.750;2023-02-28T09:00:55;4.70;58.10
75621;DHT22;64574;48.506;-2.750;2023-02-28T09:03:21;4.90;57.90
75621;DHT22;64574;48.506;-2.750;2023-02-28T09:05:54;4.90;57.70
75621;DHT22;64574;48.506;-2.750;2023-02-28T09:08:19;4.80;57.80
75621;DHT22;64574;48.506;-2.750;2023-02-28T09:10:45;4.70;57.90
75621;DHT22;64574;48.506;-2.750;2023-02-28T09:13:11;4.70;58.00
75621;DHT22;64574;48.506;-2.750;2023-02-28T09:15:39;4.80;58.00
75621;DHT22;64574;48.506;-2.750;2023-02-28T09:18:05;4.90;58.20
75621;DHT22;64574;48.506;-2.750;2023-02-28T09:20:31;5.00;58.20
75621;DHT22;64574;48.506;-2.750;2023-02-28T09:22:56;5.00;58.20
75621;DHT22;64574;48.506;-2.750;2023-02-28T09:25:22;5.10;58.20
75621;DHT22;64574;48.506;-2.750;2023-02-28T09:27:47;5.00;58.60
75621;DHT22;64574;48.506;-2.750;2023-02-28T09:30:14;5.00;59.00
75621;DHT22;64574;48.506;-2.750;2023-02-28T09:32:39;5.00;59.20
75621;DHT22;64574;48.506;-2.750;2023-02-28T09:35:05;5.20;59.20
75621;DHT22;64574;48.506;-2.750;2023-02-28T09:37:31;5.10;58.80
75621;DHT22;64574;48.506;-2.750;2023-02-28T09:39:57;5.30;59.20
75621;DHT22;64574;48.506;-2.750;2023-02-28T09:42:32;5.30;59.20
75621;DHT22;64574;48.506;-2.750;2023-02-28T09:45:00;5.30;58.60
75621;DHT22;64574;48.506;-2.750;2023-02-28T09:47:31;5.10;58.50
75621;DHT22;64574;48.506;-2.750;2023-02-28T09:50:28;5.30;58.70
75621;DHT22;64574;48.506;-2.750;2023-02-28T09:52:49;5.40;58.70
75621;DHT22;64574;48.506;-2.750;2023-02-28T09:57:50;5.40;58.30
75621;DHT22;64574;48.506;-2.750;2023-02-28T10:05:21;5.30;59.00
75621;DHT22;64574;48.506;-2.750;2023-02-28T10:10:39;5.30;59.00
75621;DHT22;64574;48.506;-2.750;2023-02-28T10:13:14;5.30;59.10
75621;DHT22;64574;48.506;-2.750;2023-02-28T10:15:41;5.30;59.30
75621;DHT22;64574;48.506;-2.750;2023-02-28T10:18:12;5.40;59.30
75621;DHT22;64574;48.506;-2.750;2023-02-28T10:20:41;5.30;58.80
75621;DHT22;64574;48.506;-2.750;2023-02-28T10:23:21;5.30;58.90
75621;DHT22;64574;48.506;-2.750;2023-02-28T10:26:00;5.60;59.00
75621;DHT22;64574;48.506;-2.750;2023-02-28T10:28:26;5.70;59.00
75621;DHT22;64574;48.506;-2.750;2023-02-28T10:30:54;5.60;58.90
75621;DHT22;64574;48.506;-2.750;2023-02-28T10:33:28;5.60;59.10
75621;DHT22;64574;48.506;-2.750;2023-02-28T10:35:54;5.50;58.90
75621;DHT22;64574;48.506;-2.750;2023-02-28T10:38:31;5.50;59.20
75621;DHT22;64574;48.506;-2.750;2023-02-28T10:41:06;5.50;59.10
75621;DHT22;64574;48.506;-2.750;2023-02-28T10:43:32;5.50;58.90
75621;DHT22;64574;48.506;-2.750;2023-02-28T10:48:42;5.30;59.60
75621;DHT22;64574;48.506;-2.750;2023-02-28T10:51:15;5.30;59.40
75621;DHT22;64574;48.506;-2.750;2023-02-28T10:53:52;5.30;59.70
75621;DHT22;64574;48.506;-2.750;2023-02-28T10:56:23;5.50;60.10
75621;DHT22;64574;48.506;-2.750;2023-02-28T10:58:59;5.60;60.20
75621;DHT22;64574;48.506;-2.750;2023-02-28T11:01:43;5.60;60.00
75621;DHT22;64574;48.506;-2.750;2023-02-28T11:04:18;5.60;60.00
75621;DHT22;64574;48.506;-2.750;2023-02-28T11:06:45;5.70;60.00
75621;DHT22;64574;48.506;-2.750;2023-02-28T11:09:35;5.80;58.90
75621;DHT22;64574;48.506;-2.750;2023-02-28T11:12:04;5.70;58.90
75621;DHT22;64574;48.506;-2.750;2023-02-28T11:14:33;5.70;59.20
75621;DHT22;64574;48.506;-2.750;2023-02-28T11:17:14;5.70;59.60
75621;DHT22;64574;48.506;-2.750;2023-02-28T11:19:46;5.70;59.20
75621;DHT22;64574;48.506;-2.750;2023-02-28T11:22:19;5.70;59.00
75621;DHT22;64574;48.506;-2.750;2023-02-28T11:24:49;5.70;58.70
75621;DHT22;64574;48.506;-2.750;2023-02-28T11:27:26;5.70;59.30
75621;DHT22;64574;48.506;-2.750;2023-02-28T11:30:26;5.80;59.30
75621;DHT22;64574;48.506;-2.750;2023-02-28T11:32:56;5.80;58.40
75621;DHT22;64574;48.506;-2.750;2023-02-28T11:35:36;5.80;58.10
75621;DHT22;64574;48.506;-2.750;2023-02-28T11:38:07;5.70;58.20
75621;DHT22;64574;48.506;-2.750;2023-02-28T11:51:49;5.80;58.00
75621;DHT22;64574;48.506;-2.750;2023-02-28T12:02:32;5.90;58.30
75621;DHT22;64574;48.506;-2.750;2023-02-28T12:05:32;5.80;58.70
75621;DHT22;64574;48.506;-2.750;2023-02-28T12:13:26;6.00;59.10
75621;DHT22;64574;48.506;-2.750;2023-02-28T12:24:52;6.20;59.40
75621;DHT22;64574;48.506;-2.750;2023-02-28T12:27:22;6.30;59.70
75621;DHT22;64574;48.506;-2.750;2023-02-28T12:29:54;6.40;60.00
75621;DHT22;64574;48.506;-2.750;2023-02-28T12:32:27;6.40;59.60
75621;DHT22;64574;48.506;-2.750;2023-02-28T12:35:01;6.40;59.50
75621;DHT22;64574;48.506;-2.750;2023-02-28T12:40:14;6.50;59.80
75621;DHT22;64574;48.506;-2.750;2023-02-28T12:43:17;6.60;59.90
75621;DHT22;64574;48.506;-2.750;2023-02-28T12:46:03;6.50;60.70
75621;DHT22;64574;48.506;-2.750;2023-02-28T12:48:37;6.80;60.10
75621;DHT22;64574;48.506;-2.750;2023-02-28T12:51:06;6.90;59.60
75621;DHT22;64574;48.506;-2.750;2023-02-28T12:53:39;6.70;60.00
75621;DHT22;64574;48.506;-2.750;2023-02-28T12:59:04;6.50;60.90
75621;DHT22;64574;48.506;-2.750;2023-02-28T13:09:55;6.20;62.60
75621;DHT22;64574;48.506;-2.750;2023-02-28T13:12:21;6.50;62.50
75621;DHT22;64574;48.506;-2.750;2023-02-28T13:14:48;6.70;62.70
75621;DHT22;64574;48.506;-2.750;2023-02-28T13:17:23;7.00;62.20
75621;DHT22;64574;48.506;-2.750;2023-02-28T13:24:52;6.70;62.20
75621;DHT22;64574;48.506;-2.750;2023-02-28T13:29:53;6.70;62.40
75621;DHT22;64574;48.506;-2.750;2023-02-28T13:32:28;7.00;62.00
75621;DHT22;64574;48.506;-2.750;2023-02-28T13:40:33;7.10;62.10
75621;DHT22;64574;48.506;-2.750;2023-02-28T13:43:03;6.90;62.90
75621;DHT22;64574;48.506;-2.750;2023-02-28T13:45:30;6.80;63.20
75621;DHT22;64574;48.506;-2.750;2023-02-28T13:48:03;6.80;63.40
75621;DHT22;64574;48.506;-2.750;2023-02-28T13:50:36;6.70;63.60
75621;DHT22;64574;48.506;-2.750;2023-02-28T13:56:03;6.60;64.30
75621;DHT22;64574;48.506;-2.750;2023-02-28T14:01:35;6.40;65.00
75621;DHT22;64574;48.506;-2.750;2023-02-28T14:04:28;6.40;65.40
75621;DHT22;64574;48.506;-2.750;2023-02-28T14:07:01;6.50;66.10
75621;DHT22;64574;48.506;-2.750;2023-02-28T14:11:56;6.60;67.10
75621;DHT22;64574;48.506;-2.750;2023-02-28T14:17:12;6.60;65.90
75621;DHT22;64574;48.506;-2.750;2023-02-28T14:19:39;6.80;65.80
75621;DHT22;64574;48.506;-2.750;2023-02-28T14:22:43;6.90;65.10
75621;DHT22;64574;48.506;-2.750;2023-02-28T14:25:37;6.90;64.80
75621;DHT22;64574;48.506;-2.750;2023-02-28T14:36:26;6.80;65.30
75621;DHT22;64574;48.506;-2.750;2023-02-28T14:38:56;6.70;66.00
75621;DHT22;64574;48.506;-2.750;2023-02-28T14:43:54;6.50;66.50
75621;DHT22;64574;48.506;-2.750;2023-02-28T14:46:21;6.50;66.70
75621;DHT22;64574;48.506;-2.750;2023-02-28T14:48:48;6.50;66.80
75621;DHT22;64574;48.506;-2.750;2023-02-28T14:51:19;6.60;67.00
75621;DHT22;64574;48.506;-2.750;2023-02-28T14:53:51;6.70;67.00
75621;DHT22;64574;48.506;-2.750;2023-02-28T14:56:21;6.60;67.30
75621;DHT22;64574;48.506;-2.750;2023-02-28T14:58:55;6.50;67.80
75621;DHT22;64574;48.506;-2.750;2023-02-28T15:01:23;6.50;68.10
75621;DHT22;64574;48.506;-2.750;2023-02-28T15:04:06;6.50;68.20
75621;DHT22;64574;48.506;-2.750;2023-02-28T15:06:38;6.40;68.40
75621;DHT22;64574;48.506;-2.750;2023-02-28T15:09:30;6.60;68.80
75621;DHT22;64574;48.506;-2.750;2023-02-28T15:11:56;6.60;69.70
75621;DHT22;64574;48.506;-2.750;2023-02-28T15:14:22;6.50;70.90
75621;DHT22;64574;48.506;-2.750;2023-02-28T15:17:00;6.70;71.60
75621;DHT22;64574;48.506;-2.750;2023-02-28T15:19:30;6.60;72.00
75621;DHT22;64574;48.506;-2.750;2023-02-28T15:22:10;6.70;72.20
75621;DHT22;64574;48.506;-2.750;2023-02-28T15:24:43;6.80;71.70
75621;DHT22;64574;48.506;-2.750;2023-02-28T15:27:23;6.80;72.30
75621;DHT22;64574;48.506;-2.750;2023-02-28T15:29:54;6.50;72.30
75621;DHT22;64574;48.506;-2.750;2023-02-28T15:32:25;6.50;72.50
75621;DHT22;64574;48.506;-2.750;2023-02-28T15:34:51;6.40;72.50
75621;DHT22;64574;48.506;-2.750;2023-02-28T15:43:05;6.40;72.90
75621;DHT22;64574;48.506;-2.750;2023-02-28T15:45:57;6.50;72.70
75621;DHT22;64574;48.506;-2.750;2023-02-28T15:50:55;6.40;73.00
75621;DHT22;64574;48.506;-2.750;2023-02-28T15:53:25;6.50;73.50
75621;DHT22;64574;48.506;-2.750;2023-02-28T15:56:05;6.40;73.20
75621;DHT22;64574;48.506;-2.750;2023-02-28T15:58:34;6.40;71.60
75621;DHT22;64574;48.506;-2.750;2023-02-28T16:03:51;6.40;69.80
75621;DHT22;64574;48.506;-2.750;2023-02-28T16:09:14;6.40;69.10
75621;DHT22;64574;48.506;-2.750;2023-02-28T16:11:51;6.50;68.90
75621;DHT22;64574;48.506;-2.750;2023-02-28T16:14:21;6.50;68.90
75621;DHT22;64574;48.506;-2.750;2023-02-28T16:16:50;6.50;69.10
75621;DHT22;64574;48.506;-2.750;2023-02-28T16:19:17;6.40;68.70
75621;DHT22;64574;48.506;-2.750;2023-02-28T16:21:43;6.50;68.20
75621;DHT22;64574;48.506;-2.750;2023-02-28T16:24:09;6.30;67.10
75621;DHT22;64574;48.506;-2.750;2023-02-28T16:26:35;6.40;67.20
75621;DHT22;64574;48.506;-2.750;2023-02-28T16:29:03;6.40;67.30
75621;DHT22;64574;48.506;-2.750;2023-02-28T16:31:36;6.30;67.00
75621;DHT22;64574;48.506;-2.750;2023-02-28T16:34:03;6.20;66.80
75621;DHT22;64574;48.506;-2.750;2023-02-28T16:36:29;6.20;67.50
75621;DHT22;64574;48.506;-2.750;2023-02-28T16:38:55;6.30;68.10
75621;DHT22;64574;48.506;-2.750;2023-02-28T16:41:23;6.30;68.90
75621;DHT22;64574;48.506;-2.750;2023-02-28T16:43:51;6.30;69.10
75621;DHT22;64574;48.506;-2.750;2023-02-28T16:46:18;6.30;68.40
75621;DHT22;64574;48.506;-2.750;2023-02-28T16:48:45;6.20;68.50
75621;DHT22;64574;48.506;-2.750;2023-02-28T16:51:13;6.30;68.80
75621;DHT22;64574;48.506;-2.750;2023-02-28T16:53:40;6.30;69.10
75621;DHT22;64574;48.506;-2.750;2023-02-28T16:56:15;6.30;69.20
75621;DHT22;64574;48.506;-2.750;2023-02-28T16:58:41;6.30;69.30
75621;DHT22;64574;48.506;-2.750;2023-02-28T17:01:06;6.30;69.60
75621;DHT22;64574;48.506;-2.750;2023-02-28T17:03:32;6.30;69.50
75621;DHT22;64574;48.506;-2.750;2023-02-28T17:05:58;6.30;69.50
75621;DHT22;64574;48.506;-2.750;2023-02-28T17:08:23;6.30;69.40
75621;DHT22;64574;48.506;-2.750;2023-02-28T17:10:49;6.20;69.00
75621;DHT22;64574;48.506;-2.750;2023-02-28T17:13:15;6.40;69.10
75621;DHT22;64574;48.506;-2.750;2023-02-28T17:15:41;6.40;69.40
75621;DHT22;64574;48.506;-2.750;2023-02-28T17:18:09;6.40;69.60
75621;DHT22;64574;48.506;-2.750;2023-02-28T17:20:38;6.40;69.70
75621;DHT22;64574;48.506;-2.750;2023-02-28T17:23:04;6.30;70.90
75621;DHT22;64574;48.506;-2.750;2023-02-28T17:25:30;6.10;72.80
75621;DHT22;64574;48.506;-2.750;2023-02-28T17:27:55;6.00;73.60
75621;DHT22;64574;48.506;-2.750;2023-02-28T17:30:23;6.10;73.70
75621;DHT22;64574;48.506;-2.750;2023-02-28T17:32:49;6.20;73.50
75621;DHT22;64574;48.506;-2.750;2023-02-28T17:35:15;6.20;73.30
75621;DHT22;64574;48.506;-2.750;2023-02-28T17:37:41;6.30;73.20
75621;DHT22;64574;48.506;-2.750;2023-02-28T17:40:14;6.30;73.20
75621;DHT22;64574;48.506;-2.750;2023-02-28T17:42:40;6.30;73.00
75621;DHT22;64574;48.506;-2.750;2023-02-28T17:45:06;6.30;72.70
75621;DHT22;64574;48.506;-2.750;2023-02-28T17:47:32;6.30;72.40
75621;DHT22;64574;48.506;-2.750;2023-02-28T17:49:57;6.30;72.50
75621;DHT22;64574;48.506;-2.750;2023-02-28T17:52:23;6.30;71.70
75621;DHT22;64574;48.506;-2.750;2023-02-28T17:54:48;6.30;71.70
75621;DHT22;64574;48.506;-2.750;2023-02-28T17:57:15;6.30;71.30
75621;DHT22;64574;48.506;-2.750;2023-02-28T17:59:43;6.30;71.00
75621;DHT22;64574;48.506;-2.750;2023-02-28T18:02:12;6.30;70.90
75621;DHT22;64574;48.506;-2.750;2023-02-28T18:04:37;6.30;70.40